sensor_id;sensor_type;location;lat;lon;timestamp;temperature;humidity
7461;DHT22;6757;52.258;12.840;2024-01-10T00:01:01;-11.70;99.90
7461;DHT22;6757;52.258;12.840;2024-01-10T00:03:28;-11.70;99.90
7461;DHT22;6757;52.258;12.840;2024-01-10T00:05:55;-11.70;99.90
7461;DHT22;6757;52.258;12.840;2024-01-10T00:08:22;-11.70;99.90
7461;DHT22;6757;52.258;12.840;2024-01-10T00:10:52;-11.80;99.90
7461;DHT22;6757;52.258;12.840;2024-01-10T00:13:19;-11.80;99.90
7461;DHT22;6757;52.258;12.840;2024-01-10T00:15:46;-11.80;99.90
7461;DHT22;6757;52.258;12.840;2024-01-10T00:18:13;-11.80;99.90
7461;DHT22;6757;52.258;12.840;2024-01-10T00:20:39;-11.80;99.90
7461;DHT22;6757;52.258;12.840;2024-01-10T00:23:06;-11.70;99.90
7461;DHT22;6757;52.258;12.840;2024-01-10T00:25:33;-11.80;99.90
7461;DHT22;6757;52.258;12.840;2024-01-10T00:28:02;-11.90;99.90
7461;DHT22;6757;52.258;12.840;2024-01-10T00:30:29;-11.90;99.90
7461;DHT22;6757;52.258;12.840;2024-01-10T00:32:57;-12.00;99.90
7461;DHT22;6757;52.258;12.840;2024-01-10T00:35:24;-12.00;99.90
7461;DHT22;6757;52.258;12.840;2024-01-10T00:37:51;-12.00;99.90
7461;DHT22;6757;52.258;12.840;2024-01-10T00:40:19;-12.00;99.90
7461;DHT22;6757;52.258;12.840;2024-01-10T00:42:47;-12.00;99.90
7461;DHT22;6757;52.258;12.840;2024-01-10T00:45:16;-12.00;99.90
7461;DHT22;6757;52.258;12.840;2024-01-10T00:47:43;-12.00;99.90
7461;DHT22;6757;52.258;12.840;2024-01-10T00:50:11;-12.00;99.90
7461;DHT22;6757;52.258;12.840;2024-01-10T00:52:39;-12.00;99.90
7461;DHT22;6757;52.258;12.840;2024-01-10T00:55:06;-12.00;99.90
7461;DHT22;6757;52.258;12.840;2024-01-10T00:57:33;-12.10;99.90
7461;DHT22;6757;52.258;12.840;2024-01-10T01:00:00;-12.10;99.90
7461;DHT22;6757;52.258;12.840;2024-01-10T01:02:30;-12.10;99.90
7461;DHT22;6757;52.258;12.840;2024-01-10T01:04:57;-12.10;99.90
7461;DHT22;6757;52.258;12.840;2024-01-10T01:07:24;-12.10;99.90
7461;DHT22;6757;52.258;12.840;2024-01-10T01:09:51;-12.10;99.90
7461;DHT22;6757;52.258;12.840;2024-01-10T01:12:18;-12.10;99.90
7461;DHT22;6757;52.258;12.840;2024-01-10T01:14:45;-12.10;99.90
7461;DHT22;6757;52.258;12.840;2024-01-10T01:17:12;-12.10;99.90
7461;DHT22;6757;52.258;12.840;2024-01-10T01:19:41;-12.10;99.90
7461;DHT22;6757;52.258;12.840;2024-01-10T01:22:09;-12.10;99.90
7461;DHT22;6757;52.258;12.840;2024-01-10T01:24:36;-12.10;99.90
7461;DHT22;6757;52.258;12.840;2024-01-10T01:27:04;-12.00;99.90
7461;DHT22;6757;52.258;12.840;2024-01-10T01:29:31;-12.10;99.90
7461;DHT22;6757;52.258;12.840;2024-01-10T01:31:57;-12.10;99.90
7461;DHT22;6757;52.258;12.840;2024-01-10T01:34:28;-12.10;99.90
7461;DHT22;6757;52.258;12.840;2024-01-10T01:36:56;-12.10;99.90
7461;DHT22;6757;52.258;12.840;2024-01-10T01:39:26;-12.10;99.90
7461;DHT22;6757;52.258;12.840;2024-01-10T01:41:53;-12.00;99.90
7461;DHT22;6757;52.258;12.840;2024-01-10T01:44:20;-12.00;99.90
7461;DHT22;6757;52.258;12.840;2024-01-10T01:46:47;-12.10;99.90
7461;DHT22;6757;52.258;12.840;2024-01-10T01:49:15;-12.10;99.90
7461;DHT22;6757;52.258;12.840;2024-01-10T01:51:44;-12.10;99.90
7461;DHT22;6757;52.258;12.840;2024-01-10T01:54:14;-12.10;99.90
7461;DHT22;6757;52.258;12.840;2024-01-10T01:56:42;-12.10;99.90
7461;DHT22;6757;52.258;12.840;2024-01-10T01:59:11;-12.10;99.90
7461;DHT22;6757;52.258;12.840;2024-01-10T02:01:39;-12.10;99.90
7461;DHT22;6757;52.258;12.840;2024-01-10T02:04:06;-12.10;99.90
7461;DHT22;6757;52.258;12.840;2024-01-10T02:06:34;-12.10;99.90
7461;DHT22;6757;52.258;12.840;2024-01-10T02:09:04;-11.20;99.90
7461;DHT22;6757;52.258;12.840;2024-01-10T02:11:32;-12.10;99.90
7461;DHT22;6757;52.258;12.840;2024-01-10T02:13:59;-12.10;99.90
7461;DHT22;6757;52.258;12.840;2024-01-10T02:16:27;-12.00;99.90
7461;DHT22;6757;52.258;12.840;2024-01-10T02:18:54;-12.00;99.90
7461;DHT22;6757;52.258;12.840;2024-01-10T02:21:23;-12.00;99.90
7461;DHT22;6757;52.258;12.840;2024-01-10T02:23:49;-12.00;99.90
7461;DHT22;6757;52.258;12.840;2024-01-10T02:26:18;-12.00;99.90
7461;DHT22;6757;52.258;12.840;2024-01-10T02:28:45;-12.00;99.90
7461;DHT22;6757;52.258;12.840;2024-01-10T02:31:12;-12.00;99.90
7461;DHT22;6757;52.258;12.840;2024-01-10T02:33:42;-11.90;99.90
7461;DHT22;6757;52.258;12.840;2024-01-10T02:36:09;-12.00;99.90
7461;DHT22;6757;52.258;12.840;2024-01-10T02:38:36;-11.90;99.90
7461;DHT22;6757;52.258;12.840;2024-01-10T02:41:03;-12.10;99.90
7461;DHT22;6757;52.258;12.840;2024-01-10T02:43:32;-11.90;99.90
7461;DHT22;6757;52.258;12.840;2024-01-10T02:45:59;-11.90;99.90
7461;DHT22;6757;52.258;12.840;2024-01-10T02:48:25;-11.90;99.90
7461;DHT22;6757;52.258;12.840;2024-01-10T02:50:53;-11.90;99.90
7461;DHT22;6757;52.258;12.840;2024-01-10T02:53:23;-11.90;99.90
7461;DHT22;6757;52.258;12.840;2024-01-10T02:55:50;-11.90;99.90
7461;DHT22;6757;52.258;12.840;2024-01-10T02:58:18;-11.90;99.90
7461;DHT22;6757;52.258;12.840;2024-01-10T03:00:48;-11.90;99.90
7461;DHT22;6757;52.258;12.840;2024-01-10T03:03:14;-11.90;99.90
7461;DHT22;6757;52.258;12.840;2024-01-10T03:05:41;-12.70;99.90
7461;DHT22;6757;52.258;12.840;2024-01-10T03:08:08;-11.90;99.90
7461;DHT22;6757;52.258;12.840;2024-01-10T03:10:34;-11.90;99.90
7461;DHT22;6757;52.258;12.840;2024-01-10T03:13:01;-12.00;99.90
7461;DHT22;6757;52.258;12.840;2024-01-10T03:15:28;-12.00;99.90
7461;DHT22;6757;52.258;12.840;2024-01-10T03:17:57;-12.00;99.90
7461;DHT22;6757;52.258;12.840;2024-01-10T03:20:24;-11.90;99.90
7461;DHT22;6757;52.258;12.840;2024-01-10T03:22:52;-12.10;99.90
7461;DHT22;6757;52.258;12.840;2024-01-10T03:25:19;-12.10;99.90
7461;DHT22;6757;52.258;12.840;2024-01-10T03:27:46;-12.10;99.90
7461;DHT22;6757;52.258;12.840;2024-01-10T03:30:13;-12.10;99.90
7461;DHT22;6757;52.258;12.840;2024-01-10T03:32:40;-12.10;99.90
7461;DHT22;6757;52.258;12.840;2024-01-10T03:35:09;-12.10;99.90
7461;DHT22;6757;52.258;12.840;2024-01-10T03:37:36;-12.10;99.90
7461;DHT22;6757;52.258;12.840;2024-01-10T03:40:06;-12.10;99.90
7461;DHT22;6757;52.258;12.840;2024-01-10T03:42:33;-12.10;99.90
7461;DHT22;6757;52.258;12.840;2024-01-10T03:45:01;-12.10;99.90
7461;DHT22;6757;52.258;12.840;2024-01-10T03:47:28;-12.10;99.90
7461;DHT22;6757;52.258;12.840;2024-01-10T03:49:56;-12.10;99.90
7461;DHT22;6757;52.258;12.840;2024-01-10T03:52:24;-12.20;99.90
7461;DHT22;6757;52.258;12.840;2024-01-10T03:54:51;-12.20;99.90
7461;DHT22;6757;52.258;12.840;2024-01-10T03:57:18;-12.20;99.90
7461;DHT22;6757;52.258;12.840;2024-01-10T03:59:45;-12.20;99.90
7461;DHT22;6757;52.258;12.840;2024-01-10T04:02:12;-12.20;99.90
7461;DHT22;6757;52.258;12.840;2024-01-10T04:04:39;-12.20;99.90
7461;DHT22;6757;52.258;12.840;2024-01-10T04:07:06;-12.30;99.90
7461;DHT22;6757;52.258;12.840;2024-01-10T04:09:35;-12.30;99.90
7461;DHT22;6757;52.258;12.840;2024-01-10T04:12:04;-12.30;99.90
7461;DHT22;6757;52.258;12.840;2024-01-10T04:14:32;-12.30;99.90
7461;DHT22;6757;52.258;12.840;2024-01-10T04:16:59;-12.30;99.90
7461;DHT22;6757;52.258;12.840;2024-01-10T04:19:26;-12.30;99.90
7461;DHT22;6757;52.258;12.840;2024-01-10T04:21:54;-12.30;99.90
7461;DHT22;6757;52.258;12.840;2024-01-10T04:24:21;-12.30;99.90
7461;DHT22;6757;52.258;12.840;2024-01-10T04:26:50;-12.30;99.90
7461;DHT22;6757;52.258;12.840;2024-01-10T04:29:17;-12.30;99.90
7461;DHT22;6757;52.258;12.840;2024-01-10T04:31:44;-12.30;99.90
7461;DHT22;6757;52.258;12.840;2024-01-10T04:34:12;-12.30;99.90
7461;DHT22;6757;52.258;12.840;2024-01-10T04:36:39;-12.30;99.90
7461;DHT22;6757;52.258;12.840;2024-01-10T04:39:06;-12.30;99.90
7461;DHT22;6757;52.258;12.840;2024-01-10T04:41:34;-12.30;99.90
7461;DHT22;6757;52.258;12.840;2024-01-10T04:44:02;-12.30;99.90
7461;DHT22;6757;52.258;12.840;2024-01-10T04:46:29;-12.30;99.90
7461;DHT22;6757;52.258;12.840;2024-01-10T04:48:56;-12.30;99.90
7461;DHT22;6757;52.258;12.840;2024-01-10T04:51:24;-12.30;99.90
7461;DHT22;6757;52.258;12.840;2024-01-10T04:53:51;-12.50;99.90
7461;DHT22;6757;52.258;12.840;2024-01-10T04:56:17;-12.40;99.90
7461;DHT22;6757;52.258;12.840;2024-01-10T04:58:45;-12.30;99.90
7461;DHT22;6757;52.258;12.840;2024-01-10T05:01:14;-12.30;99.90
7461;DHT22;6757;52.258;12.840;2024-01-10T05:03:41;-12.30;99.90
7461;DHT22;6757;52.258;12.840;2024-01-10T05:06:08;-12.40;99.90
7461;DHT22;6757;52.258;12.840;2024-01-10T05:08:35;-12.30;99.90
7461;DHT22;6757;52.258;12.840;2024-01-10T05:11:03;-12.40;99.90
7461;DHT22;6757;52.258;12.840;2024-01-10T05:13:31;-12.30;99.90
7461;DHT22;6757;52.258;12.840;2024-01-10T05:15:58;-12.40;99.90
7461;DHT22;6757;52.258;12.840;2024-01-10T05:18:27;-12.30;99.90
7461;DHT22;6757;52.258;12.840;2024-01-10T05:20:55;-12.30;99.90
7461;DHT22;6757;52.258;12.840;2024-01-10T05:23:22;-12.20;99.90
7461;DHT22;6757;52.258;12.840;2024-01-10T05:25:49;-12.10;99.90
7461;DHT22;6757;52.258;12.840;2024-01-10T05:28:17;-12.00;99.90
7461;DHT22;6757;52.258;12.840;2024-01-10T05:30:44;-11.90;99.90
7461;DHT22;6757;52.258;12.840;2024-01-10T05:33:12;-12.00;99.90
7461;DHT22;6757;52.258;12.840;2024-01-10T05:35:42;-12.00;99.90
7461;DHT22;6757;52.258;12.840;2024-01-10T05:38:09;-12.00;99.90
7461;DHT22;6757;52.258;12.840;2024-01-10T05:40:36;-11.80;99.90
7461;DHT22;6757;52.258;12.840;2024-01-10T05:43:03;-12.00;99.90
7461;DHT22;6757;52.258;12.840;2024-01-10T05:45:32;-12.10;99.90
7461;DHT22;6757;52.258;12.840;2024-01-10T05:47:59;-12.10;99.90
7461;DHT22;6757;52.258;12.840;2024-01-10T05:50:26;-12.20;99.90
7461;DHT22;6757;52.258;12.840;2024-01-10T05:52:55;-12.20;99.90
7461;DHT22;6757;52.258;12.840;2024-01-10T05:55:23;-12.30;99.90
7461;DHT22;6757;52.258;12.840;2024-01-10T05:57:51;-12.30;99.90
7461;DHT22;6757;52.258;12.840;2024-01-10T06:00:19;-12.30;99.90
7461;DHT22;6757;52.258;12.840;2024-01-10T06:02:48;-12.40;99.90
7461;DHT22;6757;52.258;12.840;2024-01-10T06:05:16;-12.40;99.90
7461;DHT22;6757;52.258;12.840;2024-01-10T06:07:43;-12.40;99.90
7461;DHT22;6757;52.258;12.840;2024-01-10T06:10:11;-12.50;99.90
7461;DHT22;6757;52.258;12.840;2024-01-10T06:12:39;-12.50;99.90
7461;DHT22;6757;52.258;12.840;2024-01-10T06:15:07;-12.50;99.90
7461;DHT22;6757;52.258;12.840;2024-01-10T06:17:34;-12.60;99.90
7461;DHT22;6757;52.258;12.840;2024-01-10T06:20:01;-13.10;99.90
7461;DHT22;6757;52.258;12.840;2024-01-10T06:22:29;-12.60;99.90
7461;DHT22;6757;52.258;12.840;2024-01-10T06:24:56;-12.60;99.90
7461;DHT22;6757;52.258;12.840;2024-01-10T06:27:26;-12.60;99.90
7461;DHT22;6757;52.258;12.840;2024-01-10T06:29:53;-12.20;99.90
7461;DHT22;6757;52.258;12.840;2024-01-10T06:32:20;-12.00;99.90
7461;DHT22;6757;52.258;12.840;2024-01-10T06:34:47;-11.80;99.90
7461;DHT22;6757;52.258;12.840;2024-01-10T06:37:14;-11.80;99.90
7461;DHT22;6757;52.258;12.840;2024-01-10T06:39:41;-11.90;99.90
7461;DHT22;6757;52.258;12.840;2024-01-10T06:42:09;-10.90;99.90
7461;DHT22;6757;52.258;12.840;2024-01-10T06:44:38;-8.80;99.90
7461;DHT22;6757;52.258;12.840;2024-01-10T06:47:05;-6.60;99.90
7461;DHT22;6757;52.258;12.840;2024-01-10T06:49:32;-4.90;99.90
7461;DHT22;6757;52.258;12.840;2024-01-10T06:51:59;-4.60;99.90
7461;DHT22;6757;52.258;12.840;2024-01-10T06:54:26;-4.80;99.90
7461;DHT22;6757;52.258;12.840;2024-01-10T06:56:53;-5.40;99.90
7461;DHT22;6757;52.258;12.840;2024-01-10T06:59:20;-6.10;99.90
7461;DHT22;6757;52.258;12.840;2024-01-10T07:01:53;-6.90;99.90
7461;DHT22;6757;52.258;12.840;2024-01-10T07:04:21;-7.40;99.90
7461;DHT22;6757;52.258;12.840;2024-01-10T07:06:49;-8.00;99.90
7461;DHT22;6757;52.258;12.840;2024-01-10T07:09:16;-8.50;99.90
7461;DHT22;6757;52.258;12.840;2024-01-10T07:11:45;-8.90;99.90
7461;DHT22;6757;52.258;12.840;2024-01-10T07:14:14;-9.30;99.90
7461;DHT22;6757;52.258;12.840;2024-01-10T07:16:42;-9.60;99.90
7461;DHT22;6757;52.258;12.840;2024-01-10T07:19:12;-9.80;99.90
7461;DHT22;6757;52.258;12.840;2024-01-10T07:21:39;-10.10;99.90
7461;DHT22;6757;52.258;12.840;2024-01-10T07:24:07;-10.30;99.90
7461;DHT22;6757;52.258;12.840;2024-01-10T07:26:35;-10.50;99.90
7461;DHT22;6757;52.258;12.840;2024-01-10T07:29:03;-10.70;99.90
7461;DHT22;6757;52.258;12.840;2024-01-10T07:31:33;-10.80;99.90
7461;DHT22;6757;52.258;12.840;2024-01-10T07:34:01;-10.90;99.90
7461;DHT22;6757;52.258;12.840;2024-01-10T07:36:33;-11.00;99.90
7461;DHT22;6757;52.258;12.840;2024-01-10T07:39:00;-11.00;99.90
7461;DHT22;6757;52.258;12.840;2024-01-10T07:41:27;-11.10;99.90
7461;DHT22;6757;52.258;12.840;2024-01-10T07:43:54;-11.40;99.90
7461;DHT22;6757;52.258;12.840;2024-01-10T07:46:21;-11.20;99.90
7461;DHT22;6757;52.258;12.840;2024-01-10T07:48:48;-11.20;99.90
7461;DHT22;6757;52.258;12.840;2024-01-10T07:51:14;-11.30;99.90
7461;DHT22;6757;52.258;12.840;2024-01-10T07:53:43;-11.40;99.90
7461;DHT22;6757;52.258;12.840;2024-01-10T07:56:13;-11.30;99.90
7461;DHT22;6757;52.258;12.840;2024-01-10T07:58:40;-11.30;99.90
7461;DHT22;6757;52.258;12.840;2024-01-10T08:01:09;-11.30;99.90
7461;DHT22;6757;52.258;12.840;2024-01-10T08:03:36;-11.30;99.90
7461;DHT22;6757;52.258;12.840;2024-01-10T08:06:03;-11.30;99.90
7461;DHT22;6757;52.258;12.840;2024-01-10T08:08:31;-11.40;99.90
7461;DHT22;6757;52.258;12.840;2024-01-10T08:11:01;-11.40;99.90
7461;DHT22;6757;52.258;12.840;2024-01-10T08:13:29;-11.30;99.90
7461;DHT22;6757;52.258;12.840;2024-01-10T08:15:55;-11.30;99.90
7461;DHT22;6757;52.258;12.840;2024-01-10T08:18:23;-11.30;99.90
7461;DHT22;6757;52.258;12.840;2024-01-10T08:20:50;-11.30;99.90
7461;DHT22;6757;52.258;12.840;2024-01-10T08:23:17;-11.20;99.90
7461;DHT22;6757;52.258;12.840;2024-01-10T08:25:45;-11.20;99.90
7461;DHT22;6757;52.258;12.840;2024-01-10T08:28:18;-10.90;99.90
7461;DHT22;6757;52.258;12.840;2024-01-10T08:30:44;-9.30;99.90
7461;DHT22;6757;52.258;12.840;2024-01-10T08:33:11;-6.70;99.90
7461;DHT22;6757;52.258;12.840;2024-01-10T08:35:38;-5.10;99.90
7461;DHT22;6757;52.258;12.840;2024-01-10T08:38:05;-4.50;99.90
7461;DHT22;6757;52.258;12.840;2024-01-10T08:40:34;-4.60;99.90
7461;DHT22;6757;52.258;12.840;2024-01-10T08:43:01;-5.00;99.90
7461;DHT22;6757;52.258;12.840;2024-01-10T08:45:30;-5.50;99.90
7461;DHT22;6757;52.258;12.840;2024-01-10T08:47:56;-5.90;99.90
7461;DHT22;6757;52.258;12.840;2024-01-10T08:50:24;-6.40;99.90
7461;DHT22;6757;52.258;12.840;2024-01-10T08:52:51;-6.80;99.90
7461;DHT22;6757;52.258;12.840;2024-01-10T08:55:19;-7.10;99.90
7461;DHT22;6757;52.258;12.840;2024-01-10T08:57:49;-7.40;99.90
7461;DHT22;6757;52.258;12.840;2024-01-10T09:00:17;-7.70;99.90
7461;DHT22;6757;52.258;12.840;2024-01-10T09:02:45;-7.80;99.90
7461;DHT22;6757;52.258;12.840;2024-01-10T09:05:12;-8.00;99.90
7461;DHT22;6757;52.258;12.840;2024-01-10T09:07:39;-8.10;99.90
7461;DHT22;6757;52.258;12.840;2024-01-10T09:10:07;-8.20;99.90
7461;DHT22;6757;52.258;12.840;2024-01-10T09:12:36;-8.30;99.90
7461;DHT22;6757;52.258;12.840;2024-01-10T09:15:04;-8.30;99.90
7461;DHT22;6757;52.258;12.840;2024-01-10T09:17:33;-8.40;99.90
7461;DHT22;6757;52.258;12.840;2024-01-10T09:20:00;-8.50;99.90
7461;DHT22;6757;52.258;12.840;2024-01-10T09:22:28;-8.40;99.90
7461;DHT22;6757;52.258;12.840;2024-01-10T09:24:55;-8.40;99.90
7461;DHT22;6757;52.258;12.840;2024-01-10T09:27:25;-7.60;99.90
7461;DHT22;6757;52.258;12.840;2024-01-10T09:29:52;-5.70;99.90
7461;DHT22;6757;52.258;12.840;2024-01-10T09:32:19;-4.00;99.90
7461;DHT22;6757;52.258;12.840;2024-01-10T09:34:47;-3.30;99.90
7461;DHT22;6757;52.258;12.840;2024-01-10T09:37:16;-3.20;99.90
7461;DHT22;6757;52.258;12.840;2024-01-10T09:39:43;-3.30;99.90
7461;DHT22;6757;52.258;12.840;2024-01-10T09:42:10;-3.60;99.90
7461;DHT22;6757;52.258;12.840;2024-01-10T09:44:38;-4.00;99.90
7461;DHT22;6757;52.258;12.840;2024-01-10T09:47:06;-4.20;99.90
7461;DHT22;6757;52.258;12.840;2024-01-10T09:49:33;-4.50;99.90
7461;DHT22;6757;52.258;12.840;2024-01-10T09:52:04;-4.70;99.90
7461;DHT22;6757;52.258;12.840;2024-01-10T09:54:34;-4.90;99.90
7461;DHT22;6757;52.258;12.840;2024-01-10T09:57:04;-5.10;99.90
7461;DHT22;6757;52.258;12.840;2024-01-10T09:59:32;-5.20;99.90
7461;DHT22;6757;52.258;12.840;2024-01-10T10:02:01;-5.30;99.90
7461;DHT22;6757;52.258;12.840;2024-01-10T10:04:30;-5.30;99.90
7461;DHT22;6757;52.258;12.840;2024-01-10T10:06:58;-5.50;99.90
7461;DHT22;6757;52.258;12.840;2024-01-10T10:09:27;-5.90;99.90
7461;DHT22;6757;52.258;12.840;2024-01-10T10:11:56;-5.60;99.90
7461;DHT22;6757;52.258;12.840;2024-01-10T10:14:24;-5.60;99.90
7461;DHT22;6757;52.258;12.840;2024-01-10T10:16:56;-5.60;99.90
7461;DHT22;6757;52.258;12.840;2024-01-10T10:19:24;-5.60;99.90
7461;DHT22;6757;52.258;12.840;2024-01-10T10:21:51;-5.60;99.90
7461;DHT22;6757;52.258;12.840;2024-01-10T10:24:18;-5.60;99.90
7461;DHT22;6757;52.258;12.840;2024-01-10T10:26:46;-5.60;99.90
7461;DHT22;6757;52.258;12.840;2024-01-10T10:29:18;-5.50;99.90
7461;DHT22;6757;52.258;12.840;2024-01-10T10:31:47;-5.50;99.90
7461;DHT22;6757;52.258;12.840;2024-01-10T10:34:21;-5.40;99.90
7461;DHT22;6757;52.258;12.840;2024-01-10T10:36:49;-5.40;99.90
7461;DHT22;6757;52.258;12.840;2024-01-10T10:39:17;-5.40;99.90
7461;DHT22;6757;52.258;12.840;2024-01-10T10:41:47;-5.30;99.90
7461;DHT22;6757;52.258;12.840;2024-01-10T10:44:21;-4.60;99.90
7461;DHT22;6757;52.258;12.840;2024-01-10T10:46:53;-2.80;99.90
7461;DHT22;6757;52.258;12.840;2024-01-10T10:49:28;-0.90;99.90
7461;DHT22;6757;52.258;12.840;2024-01-10T10:51:59;0.10;99.90
7461;DHT22;6757;52.258;12.840;2024-01-10T10:54:29;0.40;99.90
7461;DHT22;6757;52.258;12.840;2024-01-10T10:56:59;0.40;99.90
7461;DHT22;6757;52.258;12.840;2024-01-10T10:59:32;0.20;99.90
7461;DHT22;6757;52.258;12.840;2024-01-10T11:02:01;-0.10;99.90
7461;DHT22;6757;52.258;12.840;2024-01-10T11:04:29;-0.30;99.90
7461;DHT22;6757;52.258;12.840;2024-01-10T11:06:56;-0.60;99.90
7461;DHT22;6757;52.258;12.840;2024-01-10T11:09:24;-0.80;99.90
7461;DHT22;6757;52.258;12.840;2024-01-10T11:12:08;-1.00;99.90
7461;DHT22;6757;52.258;12.840;2024-01-10T11:15:02;-1.10;99.90
7461;DHT22;6757;52.258;12.840;2024-01-10T11:17:57;-1.20;99.90
7461;DHT22;6757;52.258;12.840;2024-01-10T11:20:47;-1.20;99.90
7461;DHT22;6757;52.258;12.840;2024-01-10T11:23:39;-1.20;99.90
7461;DHT22;6757;52.258;12.840;2024-01-10T11:26:10;-1.20;99.90
7461;DHT22;6757;52.258;12.840;2024-01-10T11:28:39;-1.20;99.90
7461;DHT22;6757;52.258;12.840;2024-01-10T11:31:08;-1.20;99.90
7461;DHT22;6757;52.258;12.840;2024-01-10T11:33:39;-1.10;99.90
7461;DHT22;6757;52.258;12.840;2024-01-10T11:36:12;-1.10;99.90
7461;DHT22;6757;52.258;12.840;2024-01-10T11:38:47;-1.00;99.90
7461;DHT22;6757;52.258;12.840;2024-01-10T11:41:21;-1.00;99.90
7461;DHT22;6757;52.258;12.840;2024-01-10T11:47:18;-0.70;99.90
7461;DHT22;6757;52.258;12.840;2024-01-10T11:49:56;-0.60;99.90
7461;DHT22;6757;52.258;12.840;2024-01-10T11:52:32;-0.20;99.90
7461;DHT22;6757;52.258;12.840;2024-01-10T11:55:00;0.40;99.90
7461;DHT22;6757;52.258;12.840;2024-01-10T11:57:29;0.80;99.90
7461;DHT22;6757;52.258;12.840;2024-01-10T12:00:00;1.00;99.90
7461;DHT22;6757;52.258;12.840;2024-01-10T12:02:29;1.10;99.90
7461;DHT22;6757;52.258;12.840;2024-01-10T12:04:56;1.00;99.90
7461;DHT22;6757;52.258;12.840;2024-01-10T12:07:23;1.00;99.90
7461;DHT22;6757;52.258;12.840;2024-01-10T12:09:52;0.90;99.90
7461;DHT22;6757;52.258;12.840;2024-01-10T12:12:20;1.00;99.90
7461;DHT22;6757;52.258;12.840;2024-01-10T12:14:47;1.60;99.90
7461;DHT22;6757;52.258;12.840;2024-01-10T12:17:15;0.80;99.90
7461;DHT22;6757;52.258;12.840;2024-01-10T12:19:45;0.90;99.90
7461;DHT22;6757;52.258;12.840;2024-01-10T12:22:13;0.80;99.90
7461;DHT22;6757;52.258;12.840;2024-01-10T12:24:44;0.80;99.90
7461;DHT22;6757;52.258;12.840;2024-01-10T12:27:11;0.80;99.90
7461;DHT22;6757;52.258;12.840;2024-01-10T12:29:39;0.60;99.90
7461;DHT22;6757;52.258;12.840;2024-01-10T12:32:07;0.70;99.90
7461;DHT22;6757;52.258;12.840;2024-01-10T12:34:38;0.80;99.90
7461;DHT22;6757;52.258;12.840;2024-01-10T12:37:07;1.00;99.90
7461;DHT22;6757;52.258;12.840;2024-01-10T12:39:37;1.20;99.90
7461;DHT22;6757;52.258;12.840;2024-01-10T12:42:04;1.50;99.90
7461;DHT22;6757;52.258;12.840;2024-01-10T12:44:32;1.80;99.90
7461;DHT22;6757;52.258;12.840;2024-01-10T12:47:00;2.10;99.90
7461;DHT22;6757;52.258;12.840;2024-01-10T12:49:28;2.40;99.90
7461;DHT22;6757;52.258;12.840;2024-01-10T12:51:55;2.60;99.90
7461;DHT22;6757;52.258;12.840;2024-01-10T12:54:23;2.80;99.90
7461;DHT22;6757;52.258;12.840;2024-01-10T12:56:52;3.00;99.90
7461;DHT22;6757;52.258;12.840;2024-01-10T12:59:21;3.30;99.90
7461;DHT22;6757;52.258;12.840;2024-01-10T13:01:49;3.50;99.90
7461;DHT22;6757;52.258;12.840;2024-01-10T13:04:16;3.70;99.90
7461;DHT22;6757;52.258;12.840;2024-01-10T13:06:45;3.90;99.90
7461;DHT22;6757;52.258;12.840;2024-01-10T13:09:12;4.00;99.90
7461;DHT22;6757;52.258;12.840;2024-01-10T13:11:42;4.00;99.90
7461;DHT22;6757;52.258;12.840;2024-01-10T13:14:10;4.00;99.90
7461;DHT22;6757;52.258;12.840;2024-01-10T13:16:38;4.20;99.90
7461;DHT22;6757;52.258;12.840;2024-01-10T13:19:05;4.60;99.90
7461;DHT22;6757;52.258;12.840;2024-01-10T13:21:32;4.80;99.90
7461;DHT22;6757;52.258;12.840;2024-01-10T13:24:00;5.60;99.90
7461;DHT22;6757;52.258;12.840;2024-01-10T13:26:27;5.20;99.90
7461;DHT22;6757;52.258;12.840;2024-01-10T13:28:55;5.40;99.90
7461;DHT22;6757;52.258;12.840;2024-01-10T13:31:22;5.70;99.90
7461;DHT22;6757;52.258;12.840;2024-01-10T13:33:50;5.90;99.90
7461;DHT22;6757;52.258;12.840;2024-01-10T13:36:18;5.90;99.90
7461;DHT22;6757;52.258;12.840;2024-01-10T13:38:44;5.90;99.90
7461;DHT22;6757;52.258;12.840;2024-01-10T13:41:12;5.80;99.90
7461;DHT22;6757;52.258;12.840;2024-01-10T13:43:41;5.60;99.90
7461;DHT22;6757;52.258;12.840;2024-01-10T13:46:09;5.20;99.90
7461;DHT22;6757;52.258;12.840;2024-01-10T13:48:36;4.80;99.90
7461;DHT22;6757;52.258;12.840;2024-01-10T13:51:04;4.40;99.90
7461;DHT22;6757;52.258;12.840;2024-01-10T13:53:31;3.80;99.90
7461;DHT22;6757;52.258;12.840;2024-01-10T13:55:58;3.30;99.90
7461;DHT22;6757;52.258;12.840;2024-01-10T13:58:27;2.90;99.90
7461;DHT22;6757;52.258;12.840;2024-01-10T14:00:54;2.60;99.90
7461;DHT22;6757;52.258;12.840;2024-01-10T14:03:25;2.10;99.90
7461;DHT22;6757;52.258;12.840;2024-01-10T14:05:52;1.90;99.90
7461;DHT22;6757;52.258;12.840;2024-01-10T14:08:21;1.70;99.90
7461;DHT22;6757;52.258;12.840;2024-01-10T14:10:48;1.40;99.90
7461;DHT22;6757;52.258;12.840;2024-01-10T14:13:15;1.10;99.90
7461;DHT22;6757;52.258;12.840;2024-01-10T14:15:42;0.90;99.90
7461;DHT22;6757;52.258;12.840;2024-01-10T14:18:10;0.70;99.90
7461;DHT22;6757;52.258;12.840;2024-01-10T14:20:39;0.50;99.90
7461;DHT22;6757;52.258;12.840;2024-01-10T14:23:06;0.40;99.90
7461;DHT22;6757;52.258;12.840;2024-01-10T14:25:33;0.20;99.90
7461;DHT22;6757;52.258;12.840;2024-01-10T14:28:00;0.10;99.90
7461;DHT22;6757;52.258;12.840;2024-01-10T14:30:28;-0.10;99.90
7461;DHT22;6757;52.258;12.840;2024-01-10T14:32:57;0.40;99.90
7461;DHT22;6757;52.258;12.840;2024-01-10T14:35:24;0.20;99.90
7461;DHT22;6757;52.258;12.840;2024-01-10T14:37:53;-0.50;99.90
7461;DHT22;6757;52.258;12.840;2024-01-10T14:40:20;-0.60;99.90
7461;DHT22;6757;52.258;12.840;2024-01-10T14:42:49;-0.80;99.90
7461;DHT22;6757;52.258;12.840;2024-01-10T14:45:17;-0.80;99.90
7461;DHT22;6757;52.258;12.840;2024-01-10T14:47:47;-0.90;99.90
7461;DHT22;6757;52.258;12.840;2024-01-10T14:50:15;-1.00;99.90
7461;DHT22;6757;52.258;12.840;2024-01-10T14:52:42;-1.00;99.90
7461;DHT22;6757;52.258;12.840;2024-01-10T14:55:13;-1.10;99.90
7461;DHT22;6757;52.258;12.840;2024-01-10T14:57:40;-1.20;99.90
7461;DHT22;6757;52.258;12.840;2024-01-10T15:00:08;-1.30;99.90
7461;DHT22;6757;52.258;12.840;2024-01-10T15:02:35;-1.40;99.90
7461;DHT22;6757;52.258;12.840;2024-01-10T15:05:04;-1.60;99.90
7461;DHT22;6757;52.258;12.840;2024-01-10T15:07:31;-1.70;99.90
7461;DHT22;6757;52.258;12.840;2024-01-10T15:09:59;-1.80;99.90
7461;DHT22;6757;52.258;12.840;2024-01-10T15:12:29;-1.80;99.90
7461;DHT22;6757;52.258;12.840;2024-01-10T15:14:56;-1.90;99.90
7461;DHT22;6757;52.258;12.840;2024-01-10T15:17:25;-2.00;99.90
7461;DHT22;6757;52.258;12.840;2024-01-10T15:19:52;-2.10;99.90
7461;DHT22;6757;52.258;12.840;2024-01-10T15:22:19;-2.30;99.90
7461;DHT22;6757;52.258;12.840;2024-01-10T15:24:46;-2.40;99.90
7461;DHT22;6757;52.258;12.840;2024-01-10T15:27:14;-2.50;99.90
7461;DHT22;6757;52.258;12.840;2024-01-10T15:29:43;-2.60;99.90
7461;DHT22;6757;52.258;12.840;2024-01-10T15:32:10;-2.30;99.90
7461;DHT22;6757;52.258;12.840;2024-01-10T15:34:37;-1.50;99.90
7461;DHT22;6757;52.258;12.840;2024-01-10T15:37:05;-0.10;99.90
7461;DHT22;6757;52.258;12.840;2024-01-10T15:39:32;0.70;99.90
7461;DHT22;6757;52.258;12.840;2024-01-10T15:41:59;1.00;99.90
7461;DHT22;6757;52.258;12.840;2024-01-10T15:44:29;0.70;99.90
7461;DHT22;6757;52.258;12.840;2024-01-10T15:46:57;0.40;99.90
7461;DHT22;6757;52.258;12.840;2024-01-10T15:49:25;-0.10;99.90
7461;DHT22;6757;52.258;12.840;2024-01-10T15:51:52;-0.40;99.90